createdAt,value
2022-12-18T04:09:07.553Z,100.00
2022-12-18T04:12:21.958Z,100.00
2022-12-18T04:15:36.692Z,100.00
2022-12-18T04:18:48.003Z,100.00
2022-12-18T04:21:58.307Z,100.00
2022-12-18T04:25:13.054Z,100.00
2022-12-18T04:28:32.160Z,100.00
2022-12-18T04:31:41.866Z,100.00
2022-12-18T04:34:52.625Z,100.00
2022-12-18T04:38:02.480Z,100.00
2022-12-18T04:41:13.492Z,100.00
2022-12-18T04:44:24.615Z,100.00
2022-12-18T04:47:34.280Z,100.00
2022-12-18T04:50:43.993Z,100.00
2022-12-18T04:53:53.711Z,100.00
2022-12-18T04:57:04.849Z,99.79
2022-12-18T05:00:15.251Z,99.89
2022-12-18T05:03:25.089Z,99.41
2022-12-18T05:06:34.867Z,98.63
2022-12-18T05:09:47.191Z,99.46
2022-12-18T05:13:01.361Z,100.00
2022-12-18T05:16:11.526Z,98.83
2022-12-18T05:19:21.353Z,98.73
2022-12-18T05:22:31.029Z,98.94
2022-12-18T05:25:40.700Z,99.64
2022-12-18T05:28:52.617Z,100.00
2022-12-18T05:32:02.304Z,100.00
2022-12-18T05:35:12.947Z,99.29
2022-12-18T05:38:24.261Z,97.90
2022-12-18T05:41:33.972Z,96.94
2022-12-18T05:44:45.360Z,96.93
2022-12-18T05:47:55.009Z,96.51
2022-12-18T05:51:08.226Z,97.15
2022-12-18T05:54:17.972Z,96.53
2022-12-18T05:57:27.662Z,96.03
2022-12-18T06:00:40.930Z,95.92
2022-12-18T06:38:11.567Z,90.06
2022-12-18T06:41:23.065Z,90.11
2022-12-18T06:44:32.750Z,90.14
2022-12-18T06:47:42.447Z,89.24
2022-12-18T06:50:52.127Z,88.33
2022-12-18T06:54:03.123Z,87.59
2022-12-18T06:57:12.839Z,87.47
2022-12-18T07:00:22.581Z,88.27
2022-12-18T07:03:33.060Z,88.48
2022-12-18T07:06:42.773Z,85.96
2022-12-18T07:09:53.832Z,86.07
2022-12-18T07:13:03.787Z,85.49
2022-12-18T07:16:18.638Z,85.83
2022-12-18T07:19:32.904Z,85.63
2022-12-18T07:22:42.640Z,85.07
2022-12-18T07:25:53.557Z,84.39
2022-12-18T07:29:03.334Z,84.52
2022-12-18T07:32:13.019Z,84.31
2022-12-18T07:35:25.362Z,84.16
2022-12-18T07:38:36.702Z,84.10
2022-12-18T07:42:07.757Z,83.94
2022-12-18T07:45:17.598Z,83.06
2022-12-18T07:48:27.415Z,82.73
2022-12-18T07:51:37.027Z,83.09
2022-12-18T07:54:46.842Z,83.34
2022-12-18T07:58:01.011Z,83.38
2022-12-18T08:01:12.676Z,82.30
2022-12-18T08:04:22.348Z,82.15
2022-12-18T08:07:32.062Z,82.40
2022-12-18T08:10:41.952Z,82.84
2022-12-18T08:13:53.247Z,82.99
2022-12-18T08:17:02.988Z,82.90
2022-12-18T08:20:14.858Z,82.30
2022-12-18T08:23:27.584Z,82.51
2022-12-18T08:26:38.646Z,82.03
2022-12-18T08:29:49.571Z,82.07
2022-12-18T08:32:59.267Z,81.44
2022-12-18T08:36:10.934Z,82.25
2022-12-18T08:39:20.595Z,83.39
2022-12-18T08:42:44.178Z,83.57
2022-12-18T08:45:55.817Z,84.49
2022-12-18T08:49:06.096Z,84.43
2022-12-18T08:52:16.776Z,84.83
2022-12-18T08:55:26.546Z,84.55
2022-12-18T08:58:36.229Z,84.74
2022-12-18T09:01:48.139Z,85.41
2022-12-18T09:04:58.002Z,85.54
2022-12-18T09:08:07.786Z,85.70
2022-12-18T09:11:21.939Z,86.06
2022-12-18T09:14:31.560Z,86.25
2022-12-18T09:17:42.568Z,86.90
2022-12-18T09:20:53.607Z,87.85
2022-12-18T09:24:03.262Z,89.56
2022-12-18T09:27:15.863Z,92.31
2022-12-18T09:30:25.499Z,94.42
2022-12-18T09:33:37.470Z,95.67
2022-12-18T09:36:47.795Z,96.88
2022-12-18T09:39:57.918Z,97.08
2022-12-18T09:43:12.713Z,96.73
2022-12-18T09:46:28.689Z,97.21
2022-12-18T09:49:44.523Z,96.49
2022-12-18T09:52:58.834Z,96.24
2022-12-18T09:56:17.989Z,95.51
2022-12-18T09:59:36.894Z,94.81
2022-12-18T10:02:47.919Z,94.67
2022-12-18T10:06:08.027Z,93.67
2022-12-18T10:09:29.163Z,94.47
2022-12-18T10:12:47.952Z,93.86
2022-12-18T10:16:10.857Z,92.88
2022-12-18T10:19:36.956Z,91.93
2022-12-18T10:22:57.364Z,93.57
2022-12-18T10:26:08.446Z,94.06
2022-12-18T10:29:18.911Z,94.73
2022-12-18T10:32:31.026Z,92.88
2022-12-18T10:35:44.108Z,92.19
2022-12-18T10:38:55.069Z,91.24
2022-12-18T10:42:13.906Z,90.86
2022-12-18T10:45:23.724Z,91.27
2022-12-18T10:48:35.472Z,91.52
2022-12-18T10:51:45.246Z,91.38
2022-12-18T10:54:59.424Z,90.07
2022-12-18T10:58:26.593Z,90.24
2022-12-18T11:01:50.512Z,89.15
2022-12-18T11:05:00.294Z,90.38
2022-12-18T11:08:23.608Z,90.05
2022-12-18T11:11:35.218Z,90.30
2022-12-18T11:14:48.862Z,91.88
2022-12-18T11:17:59.217Z,91.89
2022-12-18T11:21:11.053Z,91.87
2022-12-18T11:24:27.134Z,91.88
2022-12-18T11:27:39.464Z,91.08
2022-12-18T11:30:49.141Z,90.21
2022-12-18T11:37:34.828Z,90.41
2022-12-18T11:40:49.693Z,89.85
2022-12-18T11:44:04.003Z,89.61
2022-12-18T11:47:23.803Z,89.48
2022-12-18T11:50:48.571Z,89.57
2022-12-18T11:53:58.324Z,90.34
2022-12-18T11:57:17.853Z,90.79
2022-12-18T12:00:29.058Z,90.22
2022-12-18T12:03:58.951Z,89.27
2022-12-18T12:07:20.206Z,88.42
2022-12-18T12:10:43.310Z,88.92
2022-12-18T12:14:07.012Z,87.74
2022-12-18T12:17:28.179Z,87.82
2022-12-18T12:20:49.428Z,88.91
2022-12-18T12:24:07.328Z,89.84
2022-12-18T12:27:25.976Z,91.20
2022-12-18T12:30:46.963Z,90.73
2022-12-18T12:34:09.774Z,89.15
2022-12-18T12:37:30.800Z,88.78
2022-12-18T12:40:58.789Z,88.90
2022-12-18T12:44:18.531Z,89.69
2022-12-18T12:47:34.100Z,88.61
2022-12-18T12:50:46.132Z,88.35
2022-12-18T12:53:58.362Z,88.53
2022-12-18T12:57:14.509Z,88.97
2022-12-18T13:00:27.213Z,89.06
2022-12-18T13:03:47.178Z,89.44
2022-12-18T13:07:05.974Z,88.16
2022-12-18T13:10:27.924Z,88.88
2022-12-18T13:13:50.571Z,88.76
2022-12-18T13:17:18.129Z,88.47
2022-12-18T13:20:35.679Z,88.13
2022-12-18T13:23:47.441Z,88.37
2022-12-18T13:26:57.150Z,88.85
2022-12-18T13:30:44.797Z,89.19
2022-12-18T13:34:26.306Z,89.05
2022-12-18T13:37:46.016Z,89.47
2022-12-18T13:40:59.958Z,89.47
2022-12-18T13:44:14.670Z,90.48
2022-12-18T13:47:30.077Z,90.49
2022-12-18T13:50:40.987Z,91.06
2022-12-18T13:53:53.364Z,90.88
2022-12-18T13:57:05.840Z,90.98
2022-12-18T14:00:28.029Z,91.71
2022-12-18T14:03:37.877Z,91.60
2022-12-18T14:06:48.426Z,91.73
2022-12-18T14:10:12.056Z,91.70
2022-12-18T14:13:34.918Z,92.47
2022-12-18T14:16:44.959Z,92.17
2022-12-18T14:19:55.619Z,91.81
2022-12-18T14:23:05.343Z,92.07
2022-12-18T14:26:24.375Z,92.55
2022-12-18T14:29:37.513Z,92.54
2022-12-18T14:33:01.911Z,92.78
2022-12-18T14:36:18.528Z,92.88
2022-12-18T14:39:28.319Z,92.95
2022-12-18T14:42:38.715Z,93.87
2022-12-18T14:45:50.813Z,93.86
2022-12-18T14:49:02.246Z,94.03
2022-12-18T14:52:23.075Z,93.51
2022-12-18T14:55:33.295Z,94.02
2022-12-18T14:58:48.306Z,93.69
2022-12-18T15:02:06.276Z,93.50
2022-12-18T15:05:21.627Z,93.76
2022-12-18T15:08:37.790Z,93.89
2022-12-18T15:11:49.896Z,93.48
2022-12-18T15:15:00.970Z,93.14
2022-12-18T15:18:18.126Z,93.76
2022-12-18T15:21:32.784Z,94.02
2022-12-18T15:24:43.683Z,94.49
2022-12-18T15:27:54.882Z,95.28
2022-12-18T15:31:09.335Z,95.91
2022-12-18T15:34:25.212Z,96.66
2022-12-18T15:37:36.076Z,96.62
2022-12-18T15:40:47.616Z,97.00
2022-12-18T15:43:59.194Z,98.15
2022-12-18T15:47:15.642Z,97.63
2022-12-18T15:50:28.454Z,97.75
2022-12-18T15:53:42.134Z,97.84
2022-12-18T15:57:06.687Z,97.43
2022-12-18T16:00:18.577Z,97.84
2022-12-18T16:03:29.377Z,98.10
2022-12-18T16:07:12.782Z,98.62
2022-12-18T16:10:14.325Z,98.25
2022-12-18T16:13:25.513Z,98.39
2022-12-18T16:16:36.925Z,97.65
2022-12-18T16:19:49.857Z,97.57
2022-12-18T16:23:02.720Z,97.19
2022-12-18T16:26:14.068Z,97.17
2022-12-18T16:29:28.467Z,97.39
2022-12-18T16:32:39.917Z,96.93
2022-12-18T16:35:55.200Z,97.52
2022-12-18T16:39:08.051Z,97.88
2022-12-18T16:42:21.706Z,97.79
2022-12-18T16:45:34.375Z,97.87
2022-12-18T16:48:45.919Z,97.60
2022-12-18T16:51:57.847Z,96.46
2022-12-18T16:55:13.631Z,96.76
2022-12-18T16:58:24.774Z,96.80
2022-12-18T17:01:36.020Z,96.39
2022-12-18T17:04:47.861Z,96.31
2022-12-18T17:07:59.045Z,95.59
2022-12-18T17:11:11.636Z,96.44
2022-12-18T17:14:24.623Z,97.22
2022-12-18T17:17:36.906Z,97.22
2022-12-18T17:20:48.705Z,97.13
2022-12-18T17:24:02.852Z,98.53
2022-12-18T17:27:16.190Z,98.55
2022-12-18T17:30:27.373Z,98.14
2022-12-18T17:33:38.143Z,97.95
2022-12-18T17:36:50.949Z,98.02
2022-12-18T17:40:00.713Z,98.09
2022-12-18T17:43:13.255Z,97.91
2022-12-18T17:46:24.396Z,98.19
2022-12-18T17:49:34.600Z,98.48
2022-12-18T17:52:44.872Z,98.82
2022-12-18T17:55:56.025Z,99.40
2022-12-18T17:59:07.122Z,99.14
2022-12-18T18:02:17.201Z,99.06
2022-12-18T18:05:27.714Z,98.57
2022-12-18T18:08:38.965Z,99.98
2022-12-18T18:12:00.791Z,100.00
2022-12-18T18:15:13.883Z,100.00
2022-12-18T18:18:25.338Z,100.00
2022-12-18T18:21:39.957Z,100.00
2022-12-18T18:24:51.449Z,100.00
2022-12-18T18:28:01.856Z,100.00
2022-12-18T18:31:16.700Z,100.00
2022-12-18T18:34:29.819Z,100.00
2022-12-18T18:37:40.739Z,100.00
2022-12-18T18:41:00.432Z,100.00
2022-12-18T18:44:12.277Z,100.00
2022-12-18T18:47:25.212Z,100.00
2022-12-18T18:50:35.413Z,100.00
2022-12-18T18:53:47.304Z,100.00
2022-12-18T18:57:19.938Z,100.00
2022-12-18T19:00:28.395Z,100.00
2022-12-18T19:03:41.471Z,100.00
2022-12-18T19:06:52.045Z,100.00
2022-12-18T19:10:04.482Z,100.00
2022-12-18T19:13:21.363Z,100.00
2022-12-18T19:16:31.571Z,100.00
2022-12-18T19:19:43.306Z,100.00
2022-12-18T19:22:55.475Z,100.00
2022-12-18T19:26:27.337Z,100.00
2022-12-18T19:29:37.651Z,100.00
2022-12-18T19:32:47.673Z,100.00
2022-12-18T19:35:58.634Z,100.00
2022-12-18T19:39:11.686Z,100.00
2022-12-18T19:42:28.194Z,100.00
2022-12-18T19:45:42.312Z,100.00
2022-12-18T19:48:53.657Z,100.00
2022-12-18T19:52:04.754Z,100.00
2022-12-18T19:55:15.705Z,100.00
2022-12-18T19:58:25.614Z,100.00
2022-12-18T20:01:36.784Z,100.00
2022-12-18T20:04:48.439Z,100.00
2022-12-18T20:07:59.915Z,100.00
2022-12-18T20:11:11.740Z,100.00
2022-12-18T20:14:23.551Z,100.00
2022-12-18T20:17:33.522Z,100.00
2022-12-18T20:20:43.647Z,100.00
2022-12-18T20:23:55.791Z,100.00
2022-12-18T20:27:09.774Z,100.00
2022-12-18T20:30:22.302Z,100.00
2022-12-18T20:33:32.383Z,100.00
